Spencer, Iowa
Current Conditions -  °F | °C
As of 6:53 AM on Thursday 23 Oct 2014 (Local Time) from KSPW Reporting Station
Moderate Fog Moderate Fog  
Wind Chill: 11°   Ceiling: 200
Heat Index: 11°   Visibility: 0.25mi
Dew Point: 10°   Wind: 6mph
Humidity: 96%   Direction: 300°WNW
Pressure: 30.02"   Gusts: NA
Location:  43.14°N, 95.14°W
Report Text: KSPW 231153Z AUTO 30005KT 1/4SM FG VV002 11/10 A3002 RMK AO2 SLP166 60003 70029 T01060100 10144 20106 53003 TSNO
Loading
Personal Weather Stations






























Interactive Weather Map
Tropical Storm Tracking
New forecast layout! Learn more

10-Day Weather Forecast

Advertisements
Track Severe Weather on mobile